createdAt,value
2023-01-28T00:01:30.163Z,34.05
2023-01-28T00:03:57.611Z,34.10
2023-01-28T00:06:25.298Z,35.03
2023-01-28T00:08:52.871Z,33.58
2023-01-28T00:11:22.623Z,34.60
2023-01-28T00:13:54.128Z,34.95
2023-01-28T00:16:24.550Z,33.80
2023-01-28T00:18:52.001Z,34.70
2023-01-28T00:21:19.605Z,35.40
2023-01-28T00:23:56.785Z,33.72
2023-01-28T00:26:25.326Z,36.20
2023-01-28T00:28:52.742Z,33.95
2023-01-28T00:31:26.202Z,35.95
2023-01-28T00:33:55.999Z,32.97
2023-01-28T00:36:25.015Z,35.67
2023-01-28T00:38:55.099Z,36.55
2023-01-28T00:41:24.628Z,35.83
2023-01-28T00:43:53.006Z,35.80
2023-01-28T00:46:21.612Z,34.42
2023-01-28T00:48:49.402Z,34.97
2023-01-28T00:51:20.141Z,38.30
2023-01-28T00:53:49.843Z,37.88
2023-01-28T00:56:18.360Z,36.45
2023-01-28T00:58:46.409Z,40.92
2023-01-28T01:01:15.372Z,37.15
2023-01-28T01:03:44.494Z,35.85
2023-01-28T01:06:13.885Z,34.30
2023-01-28T01:08:43.098Z,35.90
2023-01-28T01:11:11.775Z,35.30
2023-01-28T01:13:39.371Z,33.95
2023-01-28T01:16:09.663Z,37.78
2023-01-28T01:18:41.815Z,35.83
2023-01-28T01:21:11.945Z,37.35
2023-01-28T01:23:39.662Z,36.63
2023-01-28T01:26:07.891Z,36.92
2023-01-28T01:28:36.317Z,35.53
2023-01-28T01:31:10.335Z,37.47
2023-01-28T01:33:39.935Z,38.50
2023-01-28T01:36:08.143Z,38.53
2023-01-28T01:38:36.877Z,36.78
2023-01-28T01:41:05.417Z,37.42
2023-01-28T01:43:46.863Z,38.35
2023-01-28T01:46:15.882Z,38.35
2023-01-28T01:48:45.116Z,39.25
2023-01-28T01:51:19.767Z,35.80
2023-01-28T01:53:52.439Z,36.20
2023-01-28T01:56:25.026Z,33.17
2023-01-28T01:58:55.774Z,36.10
2023-01-28T02:01:27.835Z,34.17
2023-01-28T02:04:10.635Z,33.72
2023-01-28T02:06:39.797Z,32.63
2023-01-28T02:09:26.129Z,32.92
2023-01-28T02:12:11.337Z,34.45
2023-01-28T02:14:44.200Z,34.47
2023-01-28T02:17:12.123Z,33.83
2023-01-28T02:19:53.637Z,32.72
2023-01-28T02:22:45.483Z,30.90
2023-01-28T02:25:21.961Z,33.78
2023-01-28T02:28:17.318Z,33.95
2023-01-28T02:30:57.399Z,32.20
2023-01-28T02:33:35.376Z,33.30
2023-01-28T02:36:16.455Z,33.92
2023-01-28T02:41:29.675Z,33.25
2023-01-28T02:43:56.846Z,34.53
2023-01-28T02:46:45.624Z,32.40
2023-01-28T02:49:22.329Z,34.78
2023-01-28T02:52:09.995Z,32.85
2023-01-28T02:54:50.157Z,33.67
2023-01-28T02:57:48.548Z,32.40
2023-01-28T03:00:30.378Z,31.25
2023-01-28T03:03:14.058Z,33.58
2023-01-28T03:06:17.202Z,31.88
2023-01-28T03:09:05.127Z,33.25
2023-01-28T03:11:57.147Z,30.75
2023-01-28T03:14:44.416Z,31.70
2023-01-28T03:17:55.245Z,29.35
2023-01-28T03:20:43.937Z,30.25
2023-01-28T03:23:35.450Z,29.23
2023-01-28T03:26:24.685Z,26.73
2023-01-28T03:29:13.310Z,28.77
2023-01-28T03:31:59.756Z,30.88
2023-01-28T03:34:46.772Z,30.60
2023-01-28T03:37:15.185Z,29.83
2023-01-28T03:39:48.412Z,29.55
2023-01-28T03:42:16.557Z,32.22
2023-01-28T03:44:56.080Z,28.42
2023-01-28T03:47:27.770Z,27.85
2023-01-28T03:49:56.727Z,27.52
2023-01-28T03:52:30.418Z,26.30
2023-01-28T03:55:14.579Z,26.75
2023-01-28T03:57:45.011Z,27.65
2023-01-28T04:00:13.951Z,27.08
2023-01-28T04:02:44.322Z,26.63
2023-01-28T04:05:16.511Z,26.60
2023-01-28T04:07:48.436Z,25.77
2023-01-28T04:10:23.070Z,25.02
2023-01-28T04:15:24.079Z,27.20
2023-01-28T04:17:51.663Z,25.00
2023-01-28T04:20:24.441Z,23.38
2023-01-28T04:22:51.881Z,22.00
2023-01-28T04:25:20.852Z,23.25
2023-01-28T04:27:49.014Z,20.95
2023-01-28T04:30:20.448Z,22.17
2023-01-28T04:33:05.964Z,23.67
2023-01-28T04:35:42.634Z,24.15
2023-01-28T04:38:22.705Z,23.90
2023-01-28T04:40:59.915Z,28.17
2023-01-28T04:43:31.123Z,29.27
2023-01-28T04:46:16.968Z,27.30
2023-01-28T04:48:55.796Z,31.05
2023-01-28T04:51:42.116Z,30.30
2023-01-28T04:54:27.520Z,30.67
2023-01-28T04:56:58.122Z,32.15
2023-01-28T04:59:25.620Z,30.55
2023-01-28T05:01:53.101Z,32.67
2023-01-28T05:04:22.019Z,32.13
2023-01-28T05:06:49.231Z,32.00
2023-01-28T05:09:19.929Z,29.83
2023-01-28T05:11:48.147Z,30.95
2023-01-28T05:14:15.927Z,29.23
2023-01-28T05:16:51.082Z,30.40
2023-01-28T05:19:19.495Z,30.92
2023-01-28T05:21:47.257Z,30.55
2023-01-28T05:24:35.053Z,29.25
2023-01-28T05:27:03.813Z,30.73
2023-01-28T05:29:31.288Z,32.45
2023-01-28T05:31:59.600Z,32.00
2023-01-28T05:34:27.158Z,30.02
2023-01-28T05:36:55.949Z,35.83
2023-01-28T05:39:35.668Z,33.33
2023-01-28T05:42:02.932Z,34.15
2023-01-28T05:44:32.736Z,33.33
2023-01-28T05:47:12.510Z,35.92
2023-01-28T05:49:59.833Z,34.40
2023-01-28T05:53:08.767Z,32.58
2023-01-28T05:55:39.277Z,36.65
2023-01-28T05:58:06.869Z,35.05
2023-01-28T06:00:35.201Z,35.78
2023-01-28T06:03:04.388Z,36.92
2023-01-28T06:05:32.670Z,37.65
2023-01-28T06:08:01.549Z,37.65
2023-01-28T06:10:30.016Z,35.88
2023-01-28T06:12:57.346Z,37.15
2023-01-28T06:15:43.292Z,34.85
2023-01-28T06:18:37.426Z,32.63
2023-01-28T06:21:05.185Z,37.08
2023-01-28T06:23:32.335Z,32.08
2023-01-28T06:25:59.978Z,36.13
2023-01-28T06:28:27.244Z,40.22
2023-01-28T06:30:55.113Z,36.80
2023-01-28T06:33:22.656Z,35.90
2023-01-28T06:35:50.128Z,39.00
2023-01-28T06:38:17.311Z,37.35
2023-01-28T06:40:44.803Z,45.03
2023-01-28T06:43:12.015Z,39.92
2023-01-28T06:45:39.412Z,38.20
2023-01-28T06:48:08.750Z,37.85
2023-01-28T06:50:36.409Z,38.83
2023-01-28T06:53:03.620Z,37.83
2023-01-28T06:55:31.085Z,38.33
2023-01-28T06:57:58.278Z,37.85
2023-01-28T07:00:25.804Z,37.17
2023-01-28T07:02:57.076Z,38.08
2023-01-28T07:05:24.851Z,51.58
2023-01-28T07:07:52.431Z,39.83
2023-01-28T07:10:20.068Z,46.03
2023-01-28T07:12:47.314Z,40.63
2023-01-28T07:15:15.287Z,38.83
2023-01-28T07:17:42.729Z,39.45
2023-01-28T07:20:12.962Z,64.35
2023-01-28T07:22:44.092Z,45.85
2023-01-28T07:25:12.864Z,37.20
2023-01-28T07:27:40.461Z,41.83
2023-01-28T07:30:08.782Z,38.65
2023-01-28T07:32:35.986Z,41.03
2023-01-28T07:35:03.484Z,39.17
2023-01-28T07:37:30.747Z,40.13
2023-01-28T07:39:58.159Z,42.75
2023-01-28T07:42:25.384Z,47.70
2023-01-28T07:44:53.937Z,39.95
2023-01-28T07:47:21.353Z,41.88
2023-01-28T07:49:48.797Z,39.15
2023-01-28T07:52:15.964Z,40.95
2023-01-28T07:54:43.367Z,45.63
2023-01-28T07:57:10.578Z,43.65
2023-01-28T07:59:38.186Z,48.75
2023-01-28T08:02:05.435Z,43.25
2023-01-28T08:04:33.102Z,44.30
2023-01-28T08:07:00.357Z,50.50
2023-01-28T08:09:27.825Z,57.83
2023-01-28T08:11:55.016Z,51.72
2023-01-28T08:14:22.431Z,40.40
2023-01-28T08:16:49.561Z,48.72
2023-01-28T08:19:18.419Z,57.90
2023-01-28T08:21:48.040Z,48.30
2023-01-28T08:24:15.755Z,46.42
2023-01-28T08:26:43.430Z,38.97
2023-01-28T08:29:10.858Z,54.05
2023-01-28T08:31:38.100Z,39.85
2023-01-28T08:34:05.712Z,42.00
2023-01-28T08:36:32.944Z,36.33
2023-01-28T08:39:00.419Z,32.72
2023-01-28T08:41:27.596Z,35.03
2023-01-28T08:43:55.025Z,37.10
2023-01-28T08:46:22.468Z,29.98
2023-01-28T08:48:51.404Z,30.08
2023-01-28T08:51:18.536Z,33.95
2023-01-28T08:53:45.956Z,31.90
2023-01-28T08:56:14.369Z,37.22
2023-01-28T08:58:41.906Z,33.75
2023-01-28T09:01:09.143Z,35.17
2023-01-28T09:03:36.594Z,40.95
2023-01-28T09:06:04.645Z,33.17
2023-01-28T09:08:32.515Z,35.20
2023-01-28T09:11:00.352Z,29.75
2023-01-28T09:13:28.778Z,34.17
2023-01-28T09:15:56.664Z,38.08
2023-01-28T09:18:24.297Z,33.35
2023-01-28T09:20:51.540Z,34.20
2023-01-28T09:23:18.947Z,33.03
2023-01-28T09:25:46.165Z,30.95
2023-01-28T09:28:13.666Z,31.90
2023-01-28T09:30:41.022Z,34.22
2023-01-28T09:33:08.662Z,30.75
2023-01-28T09:35:36.938Z,29.38
2023-01-28T09:38:04.816Z,28.08
2023-01-28T09:40:40.791Z,29.80
2023-01-28T09:43:35.681Z,27.02
2023-01-28T09:46:07.786Z,26.20
2023-01-28T09:51:17.449Z,28.05
2023-01-28T09:53:52.308Z,28.13
2023-01-28T09:56:30.164Z,29.02
2023-01-28T09:59:06.305Z,27.58
2023-01-28T10:01:44.881Z,27.13
2023-01-28T10:04:34.329Z,25.45
2023-01-28T10:07:27.782Z,26.00
2023-01-28T10:10:11.719Z,28.50
2023-01-28T10:12:58.790Z,44.55
2023-01-28T10:15:29.207Z,37.55
2023-01-28T10:18:17.126Z,39.17
2023-01-28T10:20:51.789Z,43.45
2023-01-28T10:23:36.611Z,33.83
2023-01-28T10:26:11.404Z,27.98
2023-01-28T10:28:39.942Z,27.40
2023-01-28T10:31:17.003Z,27.58
2023-01-28T10:33:44.268Z,26.63
2023-01-28T10:36:11.859Z,22.65
2023-01-28T10:38:39.654Z,33.97
2023-01-28T10:41:08.909Z,32.42
2023-01-28T10:43:40.961Z,34.92
2023-01-28T10:46:23.481Z,23.45
2023-01-28T10:48:59.914Z,23.13
2023-01-28T10:51:38.415Z,25.67
2023-01-28T10:54:22.944Z,28.27
2023-01-28T10:57:04.164Z,25.20
2023-01-28T10:59:41.574Z,32.90
2023-01-28T11:02:32.762Z,29.17
2023-01-28T11:05:22.174Z,27.95
2023-01-28T11:07:50.233Z,25.95
2023-01-28T11:10:37.944Z,27.23
2023-01-28T11:13:07.377Z,32.95
2023-01-28T11:15:34.680Z,31.35
2023-01-28T11:18:10.716Z,28.13
2023-01-28T11:20:42.548Z,26.10
2023-01-28T11:23:33.281Z,26.70
2023-01-28T11:26:06.647Z,39.33
2023-01-28T11:28:39.553Z,28.70
2023-01-28T11:33:51.503Z,62.80
2023-01-28T11:39:10.654Z,43.15
2023-01-28T11:41:41.867Z,37.13
2023-01-28T11:44:18.981Z,42.50
2023-01-28T11:47:10.667Z,36.55
2023-01-28T11:49:57.029Z,50.13
2023-01-28T11:53:04.915Z,58.38
2023-01-28T11:55:42.392Z,72.45
2023-01-28T11:58:19.391Z,37.63
2023-01-28T12:01:01.737Z,35.78
2023-01-28T12:03:55.936Z,36.17
2023-01-28T12:06:50.107Z,29.02
2023-01-28T12:09:17.243Z,35.75
2023-01-28T12:12:09.208Z,34.28
2023-01-28T12:15:03.917Z,38.85
2023-01-28T12:18:17.638Z,38.30
2023-01-28T12:20:58.806Z,37.50
2023-01-28T12:23:55.174Z,35.75
2023-01-28T12:26:50.582Z,36.08
2023-01-28T12:29:32.764Z,33.90
2023-01-28T12:32:08.341Z,40.13
2023-01-28T12:35:04.946Z,38.03
2023-01-28T12:38:01.789Z,42.40
2023-01-28T12:40:41.374Z,75.45
2023-01-28T12:43:51.175Z,99.05
2023-01-28T12:46:46.134Z,38.15
2023-01-28T12:49:30.479Z,38.75
2023-01-28T12:52:13.778Z,35.00
2023-01-28T12:55:05.437Z,37.17
2023-01-28T12:57:35.237Z,29.70
2023-01-28T13:00:21.032Z,32.50
2023-01-28T13:03:11.908Z,35.75
2023-01-28T13:05:44.732Z,35.75
2023-01-28T13:08:28.259Z,33.35
2023-01-28T13:10:58.314Z,30.42
2023-01-28T13:13:36.329Z,35.17
2023-01-28T13:16:06.627Z,31.80
2023-01-28T13:18:40.108Z,37.90
2023-01-28T13:21:13.593Z,37.03
2023-01-28T13:23:45.312Z,31.83
2023-01-28T13:26:18.633Z,32.03
2023-01-28T13:28:48.677Z,33.20
2023-01-28T13:31:18.837Z,35.33
2023-01-28T13:34:02.328Z,33.67
2023-01-28T13:36:31.799Z,32.28
2023-01-28T13:39:08.513Z,28.92
2023-01-28T13:41:44.279Z,32.25
2023-01-28T13:44:21.953Z,33.67
2023-01-28T13:46:49.392Z,37.05
2023-01-28T13:49:23.152Z,34.33
2023-01-28T13:52:16.815Z,40.20
2023-01-28T13:55:03.946Z,32.50
2023-01-28T13:57:45.762Z,43.13
2023-01-28T14:00:18.611Z,41.53
2023-01-28T14:03:17.823Z,44.17
2023-01-28T14:06:11.757Z,31.05
2023-01-28T14:09:06.651Z,54.55
2023-01-28T14:11:53.121Z,35.88
2023-01-28T14:14:28.307Z,53.35
2023-01-28T14:17:06.215Z,26.30
2023-01-28T14:19:36.435Z,35.75
2023-01-28T14:22:10.752Z,32.72
2023-01-28T14:24:39.669Z,82.15
2023-01-28T14:27:25.458Z,22.60
2023-01-28T14:30:01.526Z,59.42
2023-01-28T14:32:31.541Z,54.15
2023-01-28T14:35:04.870Z,44.88
2023-01-28T14:37:33.326Z,35.38
2023-01-28T14:40:04.474Z,33.33
2023-01-28T14:42:40.161Z,51.47
2023-01-28T14:45:28.494Z,18.13
2023-01-28T14:48:29.683Z,25.33
2023-01-28T14:51:21.239Z,42.58
2023-01-28T14:54:12.645Z,28.40
2023-01-28T14:56:51.750Z,33.30
2023-01-28T14:59:29.289Z,30.10
2023-01-28T15:01:58.469Z,13.77
2023-01-28T15:04:29.439Z,10.07
2023-01-28T15:07:01.018Z,11.05
2023-01-28T15:09:28.511Z,11.55
2023-01-28T15:11:58.583Z,13.65
2023-01-28T15:14:31.786Z,12.90
2023-01-28T15:17:00.497Z,18.02
2023-01-28T15:19:34.697Z,29.15
2023-01-28T15:22:06.810Z,18.27
2023-01-28T15:24:35.576Z,21.17
2023-01-28T15:27:03.741Z,38.58
2023-01-28T15:29:32.287Z,34.05
2023-01-28T15:31:59.910Z,33.60
2023-01-28T15:34:30.503Z,33.78
2023-01-28T15:36:59.567Z,33.92
2023-01-28T15:39:28.707Z,30.48
2023-01-28T15:41:59.122Z,35.05
2023-01-28T15:44:31.241Z,37.63
2023-01-28T15:47:00.101Z,42.88
2023-01-28T15:49:32.704Z,42.65
2023-01-28T15:52:00.154Z,32.75
2023-01-28T15:54:30.586Z,32.88
2023-01-28T15:57:08.124Z,33.13
2023-01-28T15:59:35.531Z,33.63
2023-01-28T16:02:18.975Z,36.78
2023-01-28T16:05:01.023Z,35.42
2023-01-28T16:07:31.174Z,43.47
2023-01-28T16:10:01.714Z,46.53
2023-01-28T16:12:29.746Z,47.35
2023-01-28T16:15:00.850Z,38.95
2023-01-28T16:17:31.753Z,36.50
2023-01-28T16:20:03.655Z,37.92
2023-01-28T16:22:39.616Z,39.92
2023-01-28T16:25:22.156Z,39.03
2023-01-28T16:27:49.666Z,39.67
2023-01-28T16:30:18.031Z,37.08
2023-01-28T16:32:46.089Z,38.22
2023-01-28T16:35:19.396Z,47.15
2023-01-28T16:37:48.243Z,75.97
2023-01-28T16:40:19.776Z,52.83
2023-01-28T16:42:48.679Z,45.35
2023-01-28T16:45:19.285Z,40.45
2023-01-28T16:47:47.103Z,36.13
2023-01-28T16:50:15.787Z,38.53
2023-01-28T16:52:45.280Z,34.13
2023-01-28T16:55:15.182Z,34.50
2023-01-28T16:57:44.293Z,43.67
2023-01-28T17:00:26.337Z,36.72
2023-01-28T17:02:54.927Z,37.35
2023-01-28T17:05:23.744Z,35.92
2023-01-28T17:07:53.387Z,38.65
2023-01-28T17:10:21.034Z,34.75
2023-01-28T17:12:49.231Z,38.40
2023-01-28T17:15:17.830Z,39.22
2023-01-28T17:17:48.323Z,36.55
2023-01-28T17:20:15.818Z,36.13
2023-01-28T17:22:43.195Z,35.20
2023-01-28T17:25:11.324Z,36.13
2023-01-28T17:27:38.699Z,36.05
2023-01-28T17:30:07.067Z,33.55
2023-01-28T17:32:34.421Z,35.63
2023-01-28T17:35:02.104Z,35.55
2023-01-28T17:37:29.497Z,31.55
2023-01-28T17:39:57.077Z,33.17
2023-01-28T17:42:24.404Z,37.08
2023-01-28T17:44:53.153Z,38.05
2023-01-28T17:47:26.410Z,38.90
2023-01-28T17:49:57.839Z,53.38
2023-01-28T17:52:25.215Z,39.95
2023-01-28T17:54:52.805Z,44.95
2023-01-28T17:57:20.501Z,47.85
2023-01-28T17:59:48.108Z,57.90
2023-01-28T18:02:15.700Z,44.53
2023-01-28T18:04:43.664Z,40.72
2023-01-28T18:07:11.175Z,39.95
2023-01-28T18:09:44.056Z,35.35
2023-01-28T18:12:13.810Z,42.28
2023-01-28T18:14:41.739Z,44.72
2023-01-28T18:17:09.030Z,45.58
2023-01-28T18:19:36.633Z,43.95
2023-01-28T18:22:04.023Z,57.28
2023-01-28T18:24:31.668Z,39.03
2023-01-28T18:27:00.554Z,43.38
2023-01-28T18:29:29.818Z,39.20
2023-01-28T18:31:58.243Z,39.53
2023-01-28T18:34:28.260Z,35.85
2023-01-28T18:36:57.272Z,37.92
2023-01-28T18:39:27.665Z,33.00
2023-01-28T18:41:55.162Z,39.03
2023-01-28T18:44:24.093Z,39.45
2023-01-28T18:46:52.130Z,34.40
2023-01-28T18:49:20.192Z,30.75
2023-01-28T18:51:47.393Z,31.90
2023-01-28T18:54:15.982Z,33.55
2023-01-28T18:56:43.949Z,61.58
2023-01-28T18:59:14.029Z,42.00
2023-01-28T19:01:42.762Z,28.42
2023-01-28T19:04:11.016Z,32.53
2023-01-28T19:06:38.651Z,31.58
2023-01-28T19:09:07.115Z,30.95
2023-01-28T19:11:35.030Z,29.00
2023-01-28T19:14:02.665Z,26.85
2023-01-28T19:16:30.495Z,23.48
2023-01-28T19:19:00.978Z,23.95
2023-01-28T19:21:30.528Z,40.90
2023-01-28T19:24:01.148Z,21.50
2023-01-28T19:26:30.378Z,21.67
2023-01-28T19:28:59.111Z,24.58
2023-01-28T19:31:27.212Z,32.47
2023-01-28T19:33:57.292Z,34.33
2023-01-28T19:36:26.152Z,19.38
2023-01-28T19:38:58.885Z,13.63
2023-01-28T19:43:54.209Z,14.55
2023-01-28T19:46:21.517Z,11.32
2023-01-28T19:48:49.091Z,11.35
2023-01-28T19:51:17.417Z,11.23
2023-01-28T19:53:45.611Z,14.52
2023-01-28T19:56:15.151Z,12.63
2023-01-28T19:58:44.018Z,8.85
2023-01-28T20:01:12.342Z,15.30
2023-01-28T20:03:40.777Z,11.32
2023-01-28T20:06:16.401Z,12.55
2023-01-28T20:08:44.802Z,12.63
2023-01-28T20:11:15.036Z,11.45
2023-01-28T20:13:45.257Z,11.15
2023-01-28T20:16:27.319Z,18.40
2023-01-28T20:18:57.231Z,17.88
2023-01-28T20:21:25.238Z,21.70
2023-01-28T20:23:54.755Z,16.52
2023-01-28T20:26:29.581Z,18.73
2023-01-28T20:28:59.683Z,15.50
2023-01-28T20:31:27.081Z,13.88
2023-01-28T20:33:54.910Z,15.13
2023-01-28T20:36:22.137Z,14.23
2023-01-28T20:38:49.821Z,14.70
2023-01-28T20:41:22.879Z,12.82
2023-01-28T20:43:52.350Z,32.33
2023-01-28T20:46:25.334Z,29.17
2023-01-28T20:48:55.094Z,16.75
2023-01-28T20:51:24.988Z,15.25
2023-01-28T20:53:53.641Z,14.00
2023-01-28T20:56:24.295Z,13.18
2023-01-28T20:58:57.264Z,19.85
2023-01-28T21:01:29.248Z,25.77
2023-01-28T21:03:57.157Z,18.15
2023-01-28T21:06:25.544Z,25.55
2023-01-28T21:08:53.574Z,9.23
2023-01-28T21:11:22.145Z,13.05
2023-01-28T21:13:50.283Z,8.73
2023-01-28T21:16:18.578Z,10.02
2023-01-28T21:18:46.509Z,9.93
2023-01-28T21:21:26.168Z,8.90
2023-01-28T21:23:56.836Z,11.02
2023-01-28T21:26:24.550Z,10.02
2023-01-28T21:28:52.539Z,10.32
2023-01-28T21:31:22.566Z,12.88
2023-01-28T21:33:51.555Z,11.40
2023-01-28T21:36:19.850Z,8.07
2023-01-28T21:38:58.037Z,7.93
2023-01-28T21:41:25.771Z,7.97
2023-01-28T21:43:54.444Z,9.75
2023-01-28T21:46:23.025Z,9.25
2023-01-28T21:48:55.122Z,10.05
2023-01-28T21:51:39.590Z,7.68
2023-01-28T21:54:11.652Z,9.90
2023-01-28T21:56:39.160Z,6.85
2023-01-28T21:59:25.269Z,7.93
2023-01-28T22:01:52.585Z,7.18
2023-01-28T22:04:20.487Z,6.72
2023-01-28T22:06:47.777Z,7.50
2023-01-28T22:09:15.483Z,7.15
2023-01-28T22:11:45.100Z,6.07
2023-01-28T22:14:13.070Z,7.28
2023-01-28T22:16:40.443Z,7.18
2023-01-28T22:19:08.342Z,6.82
2023-01-28T22:21:41.314Z,6.05
2023-01-28T22:24:11.433Z,6.93
2023-01-28T22:26:39.950Z,6.97
2023-01-28T22:29:07.627Z,6.10
2023-01-28T22:31:35.019Z,6.05
2023-01-28T22:34:02.680Z,6.05
2023-01-28T22:36:32.437Z,6.40
2023-01-28T22:39:03.744Z,6.53
2023-01-28T22:41:31.212Z,8.40
2023-01-28T22:44:01.627Z,7.45
2023-01-28T22:46:29.557Z,7.07
2023-01-28T22:48:57.471Z,7.00
2023-01-28T22:51:31.454Z,5.63
2023-01-28T22:53:59.116Z,6.78
2023-01-28T22:56:27.964Z,7.68
2023-01-28T22:58:57.331Z,8.15
2023-01-28T23:01:25.376Z,7.35
2023-01-28T23:03:53.635Z,9.18
2023-01-28T23:06:22.855Z,9.27
2023-01-28T23:08:51.732Z,10.65
2023-01-28T23:11:25.571Z,10.02
2023-01-28T23:14:17.294Z,10.13
2023-01-28T23:17:03.890Z,10.30
2023-01-28T23:19:49.852Z,11.02
2023-01-28T23:22:45.588Z,9.20
2023-01-28T23:25:13.923Z,7.43
2023-01-28T23:27:41.765Z,10.05
2023-01-28T23:30:11.364Z,8.93
2023-01-28T23:32:47.036Z,8.95
2023-01-28T23:35:15.151Z,9.13
2023-01-28T23:37:42.339Z,8.73
2023-01-28T23:40:10.515Z,7.10
2023-01-28T23:42:37.708Z,9.00
2023-01-28T23:45:06.331Z,8.88
2023-01-28T23:47:33.728Z,9.80
2023-01-28T23:50:01.280Z,7.60
2023-01-28T23:52:28.621Z,8.85
2023-01-28T23:54:56.299Z,8.65
2023-01-28T23:57:23.608Z,8.05
2023-01-28T23:59:51.626Z,9.65
